Time;durP1;ratioP1;P1;durP2;ratioP2;P2;SDS_P1;SDS_P2;PMS_P1;PMS_P2;Temp;Humidity;BMP_temperature;BMP_pressure;BME280_temperature;BME280_humidity;BME280_pressure;Samples;Min_cycle;Max_cycle;Signal;HPM_P1;HPM_P2
2021/11/14 00:00:19;;;;;;;10.23;7.22;;;;;;;8.14;91.22;95669.41;5075339;28;20098;-51
2021/11/14 00:02:46;;;;;;;10.13;7.03;;;;;;;8.05;91.53;95670.53;5074483;28;20036;-51
2021/11/14 00:05:33;;;;;;;13.48;7.57;;;;;;;8.20;90.70;95670.00;5075343;28;20049;-51
2021/11/14 00:08:02;;;;;;;12.10;8.02;;;;;;;8.06;91.71;95670.22;5057485;28;20045;-51
2021/11/14 00:10:30;;;;;;;11.55;7.95;;;;;;;8.32;90.32;95663.94;5074941;28;20048;-54
2021/11/14 00:12:57;;;;;;;12.90;8.57;;;;;;;8.16;90.90;95666.41;5074285;28;20048;-53
2021/11/14 00:15:25;;;;;;;16.55;9.52;;;;;;;8.05;91.95;95657.84;5075295;28;20490;-55
2021/11/14 00:17:52;;;;;;;13.80;8.73;;;;;;;7.77;93.25;95660.16;5074667;28;20082;-55
2021/11/14 00:20:23;;;;;;;12.93;9.05;;;;;;;7.73;93.48;95662.72;5074867;28;20044;-55
2021/11/14 00:22:50;;;;;;;13.57;8.80;;;;;;;7.80;93.24;95664.09;5074400;28;20044;-52
2021/11/14 00:25:18;;;;;;;13.07;9.10;;;;;;;8.11;91.55;95664.66;5074542;28;20068;-49
2021/11/14 00:27:46;;;;;;;14.32;9.20;;;;;;;8.01;92.02;95664.22;5075030;28;20127;-49
2021/11/14 00:30:15;;;;;;;14.05;9.20;;;;;;;7.77;93.21;95649.41;5057019;28;20603;-51
2021/11/14 00:32:43;;;;;;;13.80;9.68;;;;;;;7.78;93.45;95661.75;5039684;28;20036;-50
2021/11/14 00:35:12;;;;;;;14.43;9.55;;;;;;;7.82;93.39;95659.19;5074769;28;20067;-49
2021/11/14 00:37:39;;;;;;;13.38;9.18;;;;;;;7.55;94.76;95663.84;5074646;28;20068;-48
2021/11/14 00:40:14;;;;;;;15.80;10.38;;;;;;;7.52;96.21;95653.72;5074683;28;20050;-49
2021/11/14 00:42:41;;;;;;;14.13;9.25;;;;;;;7.90;94.42;95663.78;5073602;28;20047;-48
2021/11/14 00:45:09;;;;;;;12.93;9.98;;;;;;;7.86;94.18;95662.81;5074305;28;20462;-51
2021/11/14 00:47:37;;;;;;;15.90;9.38;;;;;;;8.16;92.36;95661.00;5074278;28;20056;-48
2021/11/14 00:50:10;;;;;;;14.45;10.43;;;;;;;7.86;94.07;95657.44;5074175;28;20101;-50
2021/11/14 00:52:40;;;;;;;15.77;9.47;;;;;;;7.84;94.67;95667.75;5073527;28;20075;-53
2021/11/14 00:55:08;;;;;;;13.30;9.02;;;;;;;7.97;93.88;95670.25;5073841;28;20041;-53
2021/11/14 00:57:36;;;;;;;14.25;8.95;;;;;;;8.06;93.78;95672.94;5074097;28;20037;-50
2021/11/14 01:00:07;;;;;;;14.15;10.05;;;;;;;7.93;93.85;95665.84;5073035;28;20062;-51
2021/11/14 01:02:34;;;;;;;14.35;8.98;;;;;;;7.83;94.52;95675.06;5073232;28;20442;-52
2021/11/14 01:05:01;;;;;;;11.85;8.48;;;;;;;7.99;93.93;95674.50;5073947;28;20040;-52
2021/11/14 01:07:28;;;;;;;11.57;8.30;;;;;;;8.36;91.48;95675.66;5056512;28;20045;-53
2021/11/14 01:09:55;;;;;;;11.15;8.55;;;;;;;8.18;92.55;95681.09;5056376;28;20489;-51
2021/11/14 01:12:22;;;;;;;13.13;8.90;;;;;;;7.96;93.43;95678.63;5073187;28;20047;-52
2021/11/14 01:14:49;;;;;;;12.23;8.52;;;;;;;8.02;93.77;95682.75;5074018;28;20044;-52
2021/11/14 01:17:16;;;;;;;12.27;8.60;;;;;;;8.11;93.50;95683.50;5073606;28;20049;-47
2021/11/14 01:19:43;;;;;;;11.48;8.70;;;;;;;7.93;93.73;95682.00;5073637;28;20097;-48
2021/11/14 01:22:11;;;;;;;11.35;8.35;;;;;;;8.03;93.58;95686.25;5073529;28;20094;-46
2021/11/14 01:24:38;;;;;;;14.80;8.70;;;;;;;8.02;93.67;95682.75;5055715;28;20135;-48
2021/11/14 01:27:05;;;;;;;12.07;8.57;;;;;;;8.00;93.37;95684.19;5055815;28;20465;-45
2021/11/14 01:29:32;;;;;;;10.95;7.45;;;;;;;7.91;93.61;95681.53;5073674;28;20473;-48
2021/11/14 01:31:59;;;;;;;12.35;8.15;;;;;;;7.93;93.42;95682.78;5055929;28;20068;-48
2021/11/14 01:34:26;;;;;;;11.02;7.50;;;;;;;7.86;94.17;95681.69;5070341;28;20060;-47
2021/11/14 01:36:53;;;;;;;11.77;7.78;;;;;;;8.12;92.45;95684.28;5073599;28;20522;-48
2021/11/14 01:39:20;;;;;;;11.68;7.97;;;;;;;8.04;92.76;95685.91;5073737;28;20151;-51
2021/11/14 01:41:47;;;;;;;10.75;7.30;;;;;;;8.22;91.67;95675.84;5073275;28;20098;-48
2021/11/14 01:44:14;;;;;;;13.02;8.50;;;;;;;8.03;92.82;95683.56;5072720;28;20076;-49
2021/11/14 01:46:42;;;;;;;13.40;9.05;;;;;;;8.03;92.71;95684.34;5073347;28;20041;-49
2021/11/14 01:49:10;;;;;;;12.40;9.32;;;;;;;8.03;92.77;95678.97;5073430;28;20071;-50
2021/11/14 01:51:54;;;;;;;14.27;9.48;;;;;;;8.02;93.19;95682.75;5073276;28;20056;-46
2021/11/14 01:54:22;;;;;;;14.05;9.32;;;;;;;7.93;93.69;95682.00;5072286;28;20136;-47
2021/11/14 01:56:49;;;;;;;13.80;9.65;;;;;;;7.75;94.61;95675.06;5073007;28;20110;-47
2021/11/14 01:59:17;;;;;;;14.02;9.50;;;;;;;7.45;96.53;95680.34;5073355;28;20051;-51
2021/11/14 02:01:44;;;;;;;13.07;8.80;;;;;;;7.49;97.53;95681.28;5072948;28;20162;-45
2021/11/14 02:04:12;;;;;;;13.45;9.68;;;;;;;7.50;97.89;95677.47;5072351;28;20157;-47
2021/11/14 02:06:46;;;;;;;13.65;8.98;;;;;;;7.48;97.88;95667.03;5055117;28;20060;-48
2021/11/14 02:09:15;;;;;;;12.05;8.02;;;;;;;7.67;97.37;95674.75;5055192;28;20513;-48
2021/11/14 02:11:42;;;;;;;13.38;8.45;;;;;;;8.05;94.20;95676.72;5072444;28;20440;-47
2021/11/14 02:14:09;;;;;;;12.10;8.18;;;;;;;7.77;95.32;95676.31;5072147;28;20131;-48
2021/11/14 02:16:37;;;;;;;12.90;8.75;;;;;;;7.44;97.47;95673.34;5055479;28;20413;-49
2021/11/14 02:19:04;;;;;;;10.90;8.18;;;;;;;7.50;97.82;95672.84;5072836;28;20136;-48
2021/11/14 02:21:31;;;;;;;11.15;7.55;;;;;;;7.81;96.86;95676.47;5073291;28;20045;-50
2021/11/14 02:23:58;;;;;;;11.10;8.35;;;;;;;7.83;95.35;95676.94;5071700;28;20048;-50
2021/11/14 02:26:26;;;;;;;11.77;8.30;;;;;;;8.09;93.86;95671.47;5072584;28;20468;-49
2021/11/14 02:28:53;;;;;;;11.23;8.35;;;;;;;7.98;93.73;95665.66;5072711;28;20056;-47
2021/11/14 02:31:22;;;;;;;14.60;8.80;;;;;;;8.13;93.43;95665.13;5072282;28;20079;-50
2021/11/14 02:33:50;;;;;;;11.73;8.48;;;;;;;7.92;94.88;95666.94;5071796;28;20102;-49
2021/11/14 02:36:18;;;;;;;11.38;8.18;;;;;;;7.90;94.81;95667.25;5072419;28;20044;-51
2021/11/14 02:38:45;;;;;;;10.80;8.25;;;;;;;7.93;94.79;95669.31;5072899;28;20434;-50
2021/11/14 02:41:13;;;;;;;11.50;7.75;;;;;;;7.88;95.22;95674.06;5072180;28;20099;-48
2021/11/14 02:43:43;;;;;;;9.63;7.38;;;;;;;7.86;95.26;95670.91;5071778;28;20140;-48
2021/11/14 02:46:11;;;;;;;10.60;7.40;;;;;;;7.96;94.32;95670.56;5072501;28;20117;-47
2021/11/14 02:48:39;;;;;;;12.68;8.25;;;;;;;7.52;96.60;95667.19;5072411;28;20071;-48
2021/11/14 02:51:09;;;;;;;12.43;7.72;;;;;;;7.48;98.00;95671.63;5054518;28;20132;-47
2021/11/14 02:53:37;;;;;;;11.13;7.88;;;;;;;7.44;98.54;95673.34;5071591;28;20493;-47
2021/11/14 02:56:05;;;;;;;11.88;8.13;;;;;;;7.43;98.69;95682.53;5071834;28;20040;-47
2021/11/14 02:58:32;;;;;;;10.77;7.88;;;;;;;7.54;98.16;95680.31;5072157;28;20456;-48
2021/11/14 03:01:04;;;;;;;12.88;8.70;;;;;;;7.53;98.00;95676.03;5072396;28;20131;-48
2021/11/14 03:03:32;;;;;;;11.93;7.50;;;;;;;7.43;98.05;95677.16;5053873;28;20448;-49
2021/11/14 03:05:59;;;;;;;11.52;8.20;;;;;;;7.47;97.97;95678.09;5071876;28;20127;-52
2021/11/14 03:08:26;;;;;;;12.32;8.65;;;;;;;7.48;98.10;95674.31;5071949;28;20123;-51
2021/11/14 03:10:53;;;;;;;13.73;9.75;;;;;;;7.36;98.68;95672.25;5071838;28;20140;-51
2021/11/14 03:13:39;;;;;;;14.27;9.40;;;;;;;7.36;98.85;95679.53;5070962;28;20059;-49
2021/11/14 03:16:08;;;;;;;16.77;10.57;;;;;;;7.39;98.95;95678.91;5071496;28;20041;-50
2021/11/14 03:18:35;;;;;;;12.48;8.85;;;;;;;7.35;98.84;95677.97;5071708;28;20405;-48
2021/11/14 03:21:03;;;;;;;15.82;10.05;;;;;;;7.43;98.47;95677.94;5071500;28;20040;-48
2021/11/14 03:23:30;;;;;;;13.52;9.63;;;;;;;7.47;98.19;95678.09;5052181;28;20043;-49
2021/11/14 03:25:59;;;;;;;13.93;9.93;;;;;;;7.63;97.29;95678.41;5071850;28;20131;-51
2021/11/14 03:28:27;;;;;;;16.55;10.77;;;;;;;7.68;96.67;95680.94;5071661;28;20041;-48
2021/11/14 03:30:55;;;;;;;14.40;9.80;;;;;;;7.83;96.36;95685.00;5071502;28;20461;-49
2021/11/14 03:33:23;;;;;;;18.02;10.95;;;;;;;7.77;96.16;95678.22;5070629;28;20043;-50
2021/11/14 03:35:56;;;;;;;14.07;10.38;;;;;;;7.87;95.75;95680.59;5071400;28;20041;-48
2021/11/14 03:38:28;;;;;;;14.57;10.90;;;;;;;7.86;95.35;95681.69;5071404;28;20363;-47
2021/11/14 03:40:56;;;;;;;17.52;11.70;;;;;;;7.77;95.72;95681.72;5053867;28;20059;-47
2021/11/14 03:43:23;;;;;;;17.25;11.73;;;;;;;7.74;96.13;95690.44;5070524;28;20127;-54
2021/11/14 03:45:50;;;;;;;22.20;12.95;;;;;;;7.76;96.29;95685.50;5071329;28;20106;-53
2021/11/14 03:48:17;;;;;;;17.38;11.32;;;;;;;7.79;96.35;95684.06;5071372;28;20406;-54
2021/11/14 03:50:45;;;;;;;17.10;12.52;;;;;;;8.09;93.63;95680.38;5071206;28;22021;-55
2021/11/14 03:53:12;;;;;;;21.45;13.00;;;;;;;8.28;92.03;95679.97;5052696;28;20093;-48
2021/11/14 03:55:40;;;;;;;21.45;12.93;;;;;;;8.05;92.87;95675.94;5071221;28;20049;-49
2021/11/14 03:58:08;;;;;;;21.55;13.50;;;;;;;8.10;92.38;95676.56;5071597;28;20127;-51
2021/11/14 04:00:39;;;;;;;18.92;13.05;;;;;;;8.00;93.01;95676.13;5071404;28;20135;-48
2021/11/14 04:03:07;;;;;;;19.92;12.88;;;;;;;7.88;93.48;95682.16;5070520;28;20045;-51
2021/11/14 04:05:34;;;;;;;20.42;13.45;;;;;;;7.93;93.44;95684.69;5071194;28;20052;-52
2021/11/14 04:08:07;;;;;;;19.17;13.10;;;;;;;7.53;95.16;95690.28;5071178;28;20054;-52
2021/11/14 04:10:35;;;;;;;19.33;13.77;;;;;;;7.60;95.40;95682.50;5070996;28;20513;-50
2021/11/14 04:13:03;;;;;;;22.08;14.23;;;;;;;7.42;96.70;95683.66;5070233;28;20087;-52
2021/11/14 04:15:30;;;;;;;23.38;14.25;;;;;;;7.52;96.74;95679.84;5070861;28;20105;-50
2021/11/14 04:17:57;;;;;;;24.27;14.93;;;;;;;7.47;97.19;95683.47;5071024;28;20051;-52
2021/11/14 04:20:26;;;;;;;23.15;13.80;;;;;;;7.50;96.94;95686.31;5070849;28;20550;-47
2021/11/14 04:22:54;;;;;;;27.48;15.65;;;;;;;7.51;97.00;95681.75;5070142;28;20058;-52
2021/11/14 04:25:23;;;;;;;23.55;13.90;;;;;;;7.52;96.95;95680.63;5069826;28;20126;-51
2021/11/14 04:27:50;;;;;;;26.58;15.02;;;;;;;7.49;96.84;95687.44;5087622;28;20442;-47
2021/11/14 04:30:17;;;;;;;23.33;14.75;;;;;;;7.42;97.28;95694.41;5091382;28;20485;-51
2021/11/14 04:32:45;;;;;;;26.85;14.82;;;;;;;7.37;97.36;95689.19;5082921;28;20132;-51
2021/11/14 04:35:13;;;;;;;26.23;14.75;;;;;;;7.11;98.77;95684.59;5074304;28;20143;-51
2021/11/14 04:37:40;;;;;;;25.80;14.65;;;;;;;7.10;99.45;95691.09;5074974;28;20468;-51
2021/11/14 04:40:09;;;;;;;29.15;15.45;;;;;;;7.22;99.42;95687.78;5075064;28;20048;-47
2021/11/14 04:42:36;;;;;;;30.73;15.85;;;;;;;7.11;99.37;95692.66;5074437;28;20119;-48
2021/11/14 04:45:05;;;;;;;29.08;15.77;;;;;;;7.06;99.92;95694.72;5074597;28;20048;-47
2021/11/14 04:47:32;;;;;;;29.73;16.88;;;;;;;7.19;99.41;95693.78;5074855;28;20076;-49
2021/11/14 04:49:59;;;;;;;30.85;16.80;;;;;;;7.26;98.62;95694.88;5057106;28;20059;-48
2021/11/14 04:52:27;;;;;;;31.02;16.63;;;;;;;7.26;98.72;95694.88;5061099;28;20120;-48
2021/11/14 04:54:54;;;;;;;25.90;16.50;;;;;;;7.41;98.08;95700.88;5074649;28;20428;-50
2021/11/14 04:57:21;;;;;;;29.45;16.95;;;;;;;7.37;97.73;95694.56;5074663;28;20101;-53
2021/11/14 04:59:48;;;;;;;31.45;17.35;;;;;;;7.38;97.80;95690.78;5074573;28;20048;-49
2021/11/14 05:02:16;;;;;;;31.33;16.77;;;;;;;7.46;97.44;95700.75;5074034;28;20430;-51
2021/11/14 05:04:43;;;;;;;29.83;16.08;;;;;;;7.50;96.88;95699.78;5073619;28;20063;-54
2021/11/14 05:07:11;;;;;;;24.90;15.32;;;;;;;7.53;96.59;95698.34;5056804;28;20064;-49
2021/11/14 05:09:38;;;;;;;24.95;15.82;;;;;;;7.59;96.61;95702.47;5073036;28;20048;-48
2021/11/14 05:12:06;;;;;;;25.58;15.10;;;;;;;7.70;95.85;95698.34;5074490;28;20054;-49
2021/11/14 05:14:33;;;;;;;29.42;16.35;;;;;;;7.56;96.06;95708.50;5074105;28;20512;-51
2021/11/14 05:17:01;;;;;;;32.20;16.90;;;;;;;7.47;96.43;95705.00;5074167;28;20049;-47
2021/11/14 05:19:28;;;;;;;35.53;17.45;;;;;;;7.37;97.10;95706.13;5071800;28;20086;-47
2021/11/14 05:21:55;;;;;;;27.45;16.17;;;;;;;7.44;97.24;95716.41;5056327;28;20048;-47
2021/11/14 05:24:21;;;;;;;28.35;16.88;;;;;;;7.56;96.78;95713.88;5073836;28;20468;-49
2021/11/14 05:26:50;;;;;;;28.95;17.42;;;;;;;7.47;96.72;95713.09;5056195;28;20072;-48
2021/11/14 05:29:17;;;;;;;34.15;16.98;;;;;;;7.42;97.25;95718.66;5074017;28;20068;-49
2021/11/14 05:31:45;;;;;;;32.10;17.77;;;;;;;7.20;98.26;95717.69;5055912;28;20051;-48
2021/11/14 05:34:12;;;;;;;35.50;17.75;;;;;;;7.10;99.03;95717.19;5055976;28;20090;-49
2021/11/14 05:36:39;;;;;;;30.42;17.90;;;;;;;6.99;99.50;95722.09;5073946;28;20551;-50
2021/11/14 05:39:06;;;;;;;44.33;18.75;;;;;;;7.05;100.00;95720.81;5073953;28;20509;-52
2021/11/14 05:41:33;;;;;;;33.50;17.52;;;;;;;6.97;99.99;95727.78;5073579;28;20050;-49
2021/11/14 05:44:00;;;;;;;33.65;18.42;;;;;;;7.09;100.00;95729.06;5073428;28;20056;-49
2021/11/14 05:46:27;;;;;;;37.35;19.05;;;;;;;7.13;99.40;95717.34;5073100;28;20090;-55
2021/11/14 05:48:54;;;;;;;34.17;18.30;;;;;;;7.12;99.71;95720.38;5073519;28;20105;-54
2021/11/14 05:51:21;;;;;;;37.35;18.88;;;;;;;7.06;100.00;95735.09;5073632;28;20516;-54
2021/11/14 05:53:48;;;;;;;30.73;16.77;;;;;;;6.91;100.00;95736.31;5073141;28;20131;-53
2021/11/14 05:56:15;;;;;;;30.67;17.08;;;;;;;6.79;100.00;95734.22;5073568;28;20127;-51
2021/11/14 06:01:18;;;;;;;28.10;17.33;;;;;;;7.03;100.00;95737.28;5073621;28;20456;-55
2021/11/14 06:06:45;;;;;;;31.23;19.70;;;;;;;7.18;98.19;95748.69;5039600;28;20052;-55
2021/11/14 06:09:12;;;;;;;32.90;20.30;;;;;;;7.01;98.58;95750.25;5073158;28;20128;-55
2021/11/14 06:11:39;;;;;;;37.45;21.77;;;;;;;6.97;98.95;95751.19;5073057;28;20144;-54
2021/11/14 06:14:06;;;;;;;35.58;21.92;;;;;;;6.84;99.80;95752.13;5072863;28;20044;-52
2021/11/14 06:16:33;;;;;;;37.05;22.17;;;;;;;6.76;100.00;95753.69;5072951;28;20135;-54
2021/11/14 06:19:00;;;;;;;44.13;21.70;;;;;;;6.78;100.00;95759.53;5073010;28;20237;-54
2021/11/14 06:21:27;;;;;;;40.22;22.02;;;;;;;6.73;100.00;95762.38;5072722;28;20078;-55
2021/11/14 06:23:54;;;;;;;37.17;22.33;;;;;;;6.76;100.00;95770.59;5072463;28;20056;-54
2021/11/14 06:26:22;;;;;;;32.53;20.75;;;;;;;6.75;100.00;95774.38;5072971;28;20079;-55
2021/11/14 06:28:51;;;;;;;37.97;23.60;;;;;;;6.76;100.00;95783.25;5073078;28;20114;-53
2021/11/14 06:31:18;;;;;;;37.15;23.17;;;;;;;6.83;100.00;95785.50;5072961;28;20040;-54
2021/11/14 06:33:45;;;;;;;42.58;23.48;;;;;;;6.90;99.85;95791.22;5072445;28;20045;-51
2021/11/14 06:36:12;;;;;;;42.97;24.35;;;;;;;6.88;99.85;95790.72;5072808;28;20045;-51
2021/11/14 06:38:39;;;;;;;37.83;23.30;;;;;;;6.94;100.00;95786.78;5072932;28;20068;-54
2021/11/14 06:41:06;;;;;;;36.72;22.30;;;;;;;7.00;99.12;95793.59;5055330;28;20057;-53
2021/11/14 06:43:34;;;;;;;35.40;22.80;;;;;;;7.29;96.86;95795.72;5072364;28;20075;-50
2021/11/14 06:46:03;;;;;;;33.33;21.95;;;;;;;7.40;95.86;95794.31;5072732;28;20052;-55
2021/11/14 06:48:32;;;;;;;30.02;20.42;;;;;;;7.47;95.69;95797.34;5054881;28;20048;-54
2021/11/14 06:50:59;;;;;;;34.28;21.08;;;;;;;7.26;96.30;95802.53;5072237;28;20068;-50
2021/11/14 06:53:26;;;;;;;35.10;21.45;;;;;;;7.52;95.42;95793.69;5071840;28;20131;-54
2021/11/14 06:55:53;;;;;;;37.97;22.42;;;;;;;7.22;96.46;95796.19;5072189;28;20517;-53
2021/11/14 06:58:21;;;;;;;32.92;20.13;;;;;;;7.10;98.23;95793.31;5071282;28;20736;-52
2021/11/14 07:00:50;;;;;;;38.83;22.08;;;;;;;7.29;96.38;95793.03;5072098;28;20040;-52
2021/11/14 07:03:17;;;;;;;39.63;23.27;;;;;;;7.03;98.22;95795.69;5071650;28;20044;-51
2021/11/14 07:05:44;;;;;;;37.25;21.73;;;;;;;6.83;99.07;95804.31;5037937;28;20079;-54
2021/11/14 07:08:11;;;;;;;37.90;23.05;;;;;;;6.85;99.25;95804.78;5072091;28;20419;-53
2021/11/14 07:10:38;;;;;;;33.42;22.20;;;;;;;7.04;98.45;95805.31;5071946;28;20083;-55
2021/11/14 07:13:05;;;;;;;32.50;21.60;;;;;;;7.20;96.10;95801.09;5070340;28;20120;-49
2021/11/14 07:15:33;;;;;;;37.38;22.90;;;;;;;6.95;97.89;95812.56;5071706;28;20048;-51
2021/11/14 07:18:00;;;;;;;35.22;21.05;;;;;;;7.02;97.01;95807.56;5072041;28;20127;-53
2021/11/14 07:20:27;;;;;;;34.38;20.77;;;;;;;6.79;98.74;95809.50;5072060;28;20429;-49
2021/11/14 07:22:54;;;;;;;35.60;22.10;;;;;;;6.88;98.86;95817.63;5071117;28;20454;-51
2021/11/14 07:25:21;;;;;;;34.65;21.25;;;;;;;6.77;99.12;95823.28;5071953;28;20079;-53
2021/11/14 07:27:51;;;;;;;32.15;20.60;;;;;;;6.63;99.67;95825.28;5071889;28;20068;-51
2021/11/14 07:30:20;;;;;;;30.60;19.75;;;;;;;6.58;99.55;95830.78;5072077;28;20120;-47
2021/11/14 07:32:48;;;;;;;31.92;19.90;;;;;;;6.48;100.00;95831.03;5071338;28;20557;-47
2021/11/14 07:35:17;;;;;;;32.42;20.25;;;;;;;6.30;100.00;95833.63;5071892;28;20048;-49
2021/11/14 07:37:44;;;;;;;34.15;21.10;;;;;;;6.44;100.00;95824.69;5054094;28;20096;-48
2021/11/14 07:40:14;;;;;;;31.70;20.15;;;;;;;6.38;100.00;95817.88;5071713;28;20068;-49
2021/11/14 07:42:44;;;;;;;32.33;20.38;;;;;;;6.63;100.00;95822.59;5053790;28;20068;-48
2021/11/14 07:45:13;;;;;;;34.65;21.27;;;;;;;6.78;99.87;95824.84;5071675;28;20044;-47
2021/11/14 07:47:40;;;;;;;36.65;22.27;;;;;;;6.65;100.00;95828.44;5071674;28;20619;-49
2021/11/14 07:50:10;;;;;;;39.72;23.42;;;;;;;6.49;99.91;95827.25;5071634;28;20065;-45
2021/11/14 07:52:38;;;;;;;37.13;21.50;;;;;;;6.56;100.00;95830.28;5071541;28;20064;-52
2021/11/14 07:55:09;;;;;;;40.85;22.83;;;;;;;6.60;99.29;95828.56;5068730;28;20051;-52
2021/11/14 07:57:42;;;;;;;37.58;21.90;;;;;;;6.55;99.78;95834.88;5072071;28;20040;-45
2021/11/14 08:00:16;;;;;;;38.15;21.92;;;;;;;6.49;100.00;95824.56;5071569;28;20072;-50
2021/11/14 08:02:43;;;;;;;37.63;22.10;;;;;;;6.30;99.87;95824.75;5071226;28;20495;-48
2021/11/14 08:05:12;;;;;;;37.78;23.10;;;;;;;6.28;100.00;95822.38;5071339;28;20052;-47
2021/11/14 08:07:39;;;;;;;37.13;22.85;;;;;;;6.49;99.51;95821.88;5053490;28;20075;-50
2021/11/14 08:10:07;;;;;;;38.15;23.10;;;;;;;6.49;98.92;95827.25;5074539;28;20739;-48
2021/11/14 08:12:34;;;;;;;41.42;23.58;;;;;;;6.39;99.09;95828.28;5074920;28;20124;-48
2021/11/14 08:15:02;;;;;;;39.42;22.67;;;;;;;6.42;98.85;95826.91;5075176;28;20052;-49
2021/11/14 08:17:29;;;;;;;41.28;23.45;;;;;;;6.34;99.30;95825.75;5120179;22;20549;-44
2021/11/14 08:20:00;;;;;;;38.47;22.70;;;;;;;6.45;98.81;95823.59;5100899;28;20159;-49
2021/11/14 08:22:30;;;;;;;40.83;24.10;;;;;;;6.42;98.87;95826.91;5094901;28;20047;-45
2021/11/14 08:24:58;;;;;;;37.53;23.05;;;;;;;6.40;99.16;95827.22;5094406;27;20135;-44
2021/11/14 08:27:25;;;;;;;42.47;24.85;;;;;;;6.50;99.17;95826.13;5094937;28;20050;-44
2021/11/14 08:29:52;;;;;;;40.80;23.48;;;;;;;6.42;98.99;95821.50;5095135;28;20447;-47
2021/11/14 08:32:19;;;;;;;38.65;24.08;;;;;;;6.26;97.88;95829.94;5093805;28;20506;-47
2021/11/14 08:34:46;;;;;;;38.58;23.58;;;;;;;6.18;99.21;95832.59;5094574;28;20381;-48
2021/11/14 08:37:14;;;;;;;40.70;22.85;;;;;;;6.28;99.52;95827.75;5076380;28;20067;-50
2021/11/14 08:39:42;;;;;;;40.35;23.55;;;;;;;6.32;98.23;95842.16;5076098;28;20451;-45
2021/11/14 08:42:09;;;;;;;38.47;21.27;;;;;;;6.30;98.20;95827.44;5094011;28;20504;-48
2021/11/14 08:44:36;;;;;;;41.28;23.15;;;;;;;6.12;97.72;95823.88;5094221;28;20044;-50
2021/11/14 08:47:04;;;;;;;36.50;22.90;;;;;;;6.25;97.88;95828.38;5094461;28;20139;-44
2021/11/14 08:49:31;;;;;;;34.60;22.08;;;;;;;6.23;97.49;95835.94;5094094;28;20036;-49
2021/11/14 08:51:59;;;;;;;40.22;23.45;;;;;;;6.44;98.31;95838.13;5094345;28;20036;-45
2021/11/14 08:54:27;;;;;;;38.53;24.45;;;;;;;6.58;97.31;95825.41;5093486;28;20465;-43
2021/11/14 08:56:53;;;;;;;35.47;21.20;;;;;;;6.70;96.98;95828.31;5094175;28;20090;-46
2021/11/14 08:59:20;;;;;;;36.63;23.00;;;;;;;6.59;97.13;95826.19;5094095;28;20386;-43
2021/11/14 09:01:47;;;;;;;36.10;21.60;;;;;;;6.82;96.88;95829.59;5094252;28;20044;-44
2021/11/14 09:04:14;;;;;;;38.78;21.83;;;;;;;6.91;96.83;95838.50;5093099;28;20048;-44
2021/11/14 09:06:41;;;;;;;34.33;20.60;;;;;;;7.12;96.86;95828.00;5094108;28;20046;-45
2021/11/14 09:09:10;;;;;;;33.35;20.90;;;;;;;7.03;96.15;95842.19;5076100;28;20036;-43
2021/11/14 09:11:43;;;;;;;38.17;23.35;;;;;;;7.04;95.82;95842.97;5093936;27;20451;-48
2021/11/14 09:14:11;;;;;;;29.45;18.88;;;;;;;6.72;94.49;95841.44;5093376;28;20122;-44
2021/11/14 09:16:39;;;;;;;32.03;20.38;;;;;;;6.86;96.63;95841.31;5093734;28;20044;-44
2021/11/14 09:19:08;;;;;;;33.80;20.95;;;;;;;7.02;96.05;95846.00;5094083;28;20036;-46
2021/11/14 09:21:37;;;;;;;38.25;21.65;;;;;;;7.09;95.50;95847.44;5092476;28;20123;-45
2021/11/14 09:24:06;;;;;;;33.38;20.23;;;;;;;7.05;95.56;95849.16;5092832;28;20044;-44
2021/11/14 09:26:34;;;;;;;30.33;18.40;;;;;;;7.18;93.85;95848.25;5093511;28;20097;-44
2021/11/14 09:29:01;;;;;;;30.20;18.88;;;;;;;7.15;94.13;95860.44;5093462;28;20416;-45
2021/11/14 09:31:29;;;;;;;30.02;19.35;;;;;;;7.11;95.31;95859.47;5075583;28;20044;-48
2021/11/14 09:33:57;;;;;;;30.17;18.80;;;;;;;7.02;94.34;95854.06;5092661;27;20040;-49
2021/11/14 09:36:30;;;;;;;28.90;18.77;;;;;;;7.05;94.75;95852.63;5093227;28;20548;-46
2021/11/14 09:38:59;;;;;;;26.58;17.52;;;;;;;6.85;95.45;95855.88;5093241;28;20047;-44
2021/11/14 09:41:26;;;;;;;28.67;18.80;;;;;;;6.92;95.49;95848.16;5092942;28;20469;-48
2021/11/14 09:43:54;;;;;;;30.23;18.40;;;;;;;7.05;95.50;95858.00;5092677;28;20051;-46
2021/11/14 09:46:38;;;;;;;30.55;18.67;;;;;;;7.18;94.87;95854.44;5093124;28;20122;-47
2021/11/14 09:49:07;;;;;;;28.02;16.95;;;;;;;7.23;93.28;95856.97;5093383;28;20108;-46
2021/11/14 09:51:34;;;;;;;29.08;17.88;;;;;;;7.35;93.46;95855.59;5093115;28;20134;-44
2021/11/14 09:54:01;;;;;;;25.60;16.88;;;;;;;7.22;93.35;95847.31;5057557;28;20101;-45
2021/11/14 09:56:30;;;;;;;27.27;17.15;;;;;;;7.24;94.27;95853.16;5093317;28;20130;-43
2021/11/14 09:58:57;;;;;;;28.52;17.83;;;;;;;7.46;93.50;95844.19;5093193;28;20119;-45
2021/11/14 10:01:24;;;;;;;27.30;16.55;;;;;;;7.44;93.79;95848.31;5093249;28;20131;-44
2021/11/14 10:03:51;;;;;;;26.42;16.83;;;;;;;7.24;93.66;95847.78;5112703;28;20438;-47
2021/11/14 10:06:22;;;;;;;26.58;16.83;;;;;;;7.13;94.07;95846.50;5113660;28;20054;-48
2021/11/14 10:08:49;;;;;;;23.15;16.23;;;;;;;7.21;93.91;95851.13;5113679;28;20044;-50
2021/11/14 10:11:17;;;;;;;29.20;16.55;;;;;;;6.95;94.50;95842.94;5113373;28;20051;-45
2021/11/14 10:13:47;;;;;;;25.85;15.27;;;;;;;6.93;94.85;95844.38;5090150;28;20048;-44
2021/11/14 10:16:17;;;;;;;25.23;14.27;;;;;;;6.94;95.28;95832.50;5092811;28;20476;-45
2021/11/14 10:18:54;;;;;;;25.52;15.13;;;;;;;6.86;95.64;95839.44;5092672;28;20075;-44
2021/11/14 10:21:23;;;;;;;23.55;14.38;;;;;;;7.00;95.55;95845.50;5092972;28;20040;-44
2021/11/14 10:23:51;;;;;;;23.25;14.93;;;;;;;7.04;95.35;95840.28;5092375;27;20052;-45
2021/11/14 10:26:19;;;;;;;20.23;13.52;;;;;;;7.09;95.11;95844.75;5093034;28;20044;-43
2021/11/14 10:28:48;;;;;;;25.55;14.63;;;;;;;7.01;95.15;95838.22;5092772;28;20047;-44
2021/11/14 10:31:24;;;;;;;26.40;15.48;;;;;;;6.94;95.70;95846.75;5092506;28;20058;-45
2021/11/14 10:33:52;;;;;;;24.38;14.05;;;;;;;6.77;96.57;95839.41;5091691;28;20044;-45
2021/11/14 10:36:20;;;;;;;26.45;15.02;;;;;;;6.99;95.99;95840.44;5092233;28;20047;-45
2021/11/14 10:38:48;;;;;;;27.85;13.95;;;;;;;6.94;95.92;95837.88;5092348;28;20415;-43
2021/11/14 10:41:16;;;;;;;24.15;13.70;;;;;;;6.98;95.80;95838.84;5073883;28;20039;-47
2021/11/14 10:43:48;;;;;;;24.83;14.55;;;;;;;6.98;95.50;95845.00;5091385;28;20043;-47
2021/11/14 10:46:24;;;;;;;23.48;14.35;;;;;;;7.05;95.41;95844.56;5092192;28;20434;-44
2021/11/14 10:48:51;;;;;;;27.42;14.45;;;;;;;7.08;95.30;95837.78;5092168;28;20070;-49
2021/11/14 10:51:18;;;;;;;24.02;13.88;;;;;;;6.97;95.64;95834.56;5072163;28;20139;-44
2021/11/14 10:53:46;;;;;;;25.42;15.20;;;;;;;6.96;95.49;95838.38;5091135;28;20082;-48
2021/11/14 10:56:14;;;;;;;23.92;14.05;;;;;;;6.88;95.60;95828.38;5091828;28;20720;-45
2021/11/14 10:58:42;;;;;;;22.13;13.98;;;;;;;6.84;96.17;95833.56;5092034;28;20068;-47
2021/11/14 11:01:13;;;;;;;24.92;15.43;;;;;;;6.87;95.72;95837.56;5092063;28;20044;-47
2021/11/14 11:03:48;;;;;;;25.52;14.52;;;;;;;6.91;95.60;95827.75;5090996;28;20051;-48
2021/11/14 11:06:25;;;;;;;23.85;14.48;;;;;;;6.77;95.96;95834.03;5091784;28;20069;-50
2021/11/14 11:09:04;;;;;;;22.15;14.48;;;;;;;6.77;96.25;95834.03;5090558;28;20048;-51
2021/11/14 11:11:35;;;;;;;22.92;14.32;;;;;;;6.74;95.82;95836.53;5091992;28;20043;-48
2021/11/14 11:14:02;;;;;;;26.10;14.80;;;;;;;6.92;95.01;95845.47;5111258;28;20048;-46
2021/11/14 11:16:31;;;;;;;21.73;13.93;;;;;;;6.87;94.35;95834.84;5112492;28;20050;-47
2021/11/14 11:19:05;;;;;;;22.10;13.00;;;;;;;6.82;93.77;95843.06;5112846;28;20446;-47
2021/11/14 11:21:42;;;;;;;21.00;12.55;;;;;;;6.99;93.41;95835.06;5089307;28;20044;-47
2021/11/14 11:24:21;;;;;;;17.85;11.52;;;;;;;6.92;92.57;95840.91;5082907;28;20108;-49
2021/11/14 11:26:54;;;;;;;17.73;11.50;;;;;;;6.87;92.26;95845.63;5112084;28;20047;-48
2021/11/14 11:29:22;;;;;;;20.95;13.32;;;;;;;6.83;92.54;95837.38;5093768;28;20047;-48
2021/11/14 11:31:50;;;;;;;17.75;11.70;;;;;;;6.91;92.17;95849.25;5110710;28;20074;-51
2021/11/14 11:34:19;;;;;;;18.77;12.48;;;;;;;6.88;92.39;95847.19;5090719;28;20077;-48
2021/11/14 11:36:48;;;;;;;19.88;12.60;;;;;;;6.94;93.19;95848.66;5091452;28;20404;-45